General Aviation Weather

Text Reports

Enter one or more of the following location identifiers separated by a space:

Zip Code, Four-Character ICAO or Three-Character IATA airport codes.

METAR - Aviation Routine Weather Report
KCEW - Crestview, Florida
Updated at 8:53 AM GMT on June 30, 2015 (3:53 AM CDT):
METAR KCEW 300853Z AUTO 00000KT 9SM CLR 23/22 A3004 RMK AO2 SLP169 T02330222 58000
TAF - Terminal Area Forecast
KCEW - Crestview, Florida
Updated at 8:53 AM GMT on June 30, 2015 (3:53 AM CDT):
No TAF is currently available for this location.
Decoded:
No decoded TAF is available.
PIREP - Pilot Weather Report
KCEW - Crestview, Florida
Updated at 8:53 AM GMT on June 30, 2015 (3:53 AM CDT):
No PIREP is currently available for this location.
AIRMET - Airmens Meteorological Information
KCEW - Crestview, Florida
Updated at 8:53 AM GMT on June 30, 2015 (3:53 AM CDT):
No AIRMET is currently available for this location.
SIGMET - Significant Meteorological Information
KCEW - Crestview, Florida
Updated at 8:53 AM GMT on June 30, 2015 (3:53 AM CDT):
No SIGMET is currently available for this location.
NOTAM - Notice to Airmen
KCEW - Crestview, Florida
Updated at 8:53 AM GMT on June 30, 2015 (3:53 AM CDT):
No NOTAM is currently available for this location.
Forecast Area
KCEW - Crestview, Florida
Updated at 8:53 AM GMT on June 30, 2015 (3:53 AM CDT):
No NOTAM is currently available for this location.
Aviation Weather Maps